sensor_id;sensor_type;location;lat;lon;timestamp;pressure;altitude;pressure_sealevel;temperature;humidity
10652;BME280;5374;42.742;23.266;2023-02-28T00:02:20;95913.94;;;7.73;100.00
10652;BME280;5374;42.742;23.266;2023-02-28T00:05:08;95919.22;;;7.73;100.00
10652;BME280;5374;42.742;23.266;2023-02-28T00:07:57;95918.06;;;7.69;100.00
10652;BME280;5374;42.742;23.266;2023-02-28T00:10:45;95909.41;;;7.62;100.00
10652;BME280;5374;42.742;23.266;2023-02-28T00:32:27;95954.31;;;7.43;100.00
10652;BME280;5374;42.742;23.266;2023-02-28T00:35:15;95957.38;;;7.40;100.00
10652;BME280;5374;42.742;23.266;2023-02-28T00:38:03;95942.84;;;7.25;100.00
10652;BME280;5374;42.742;23.266;2023-02-28T00:40:50;95956.41;;;7.35;100.00
10652;BME280;5374;42.742;23.266;2023-02-28T00:43:38;95952.41;;;7.26;100.00
10652;BME280;5374;42.742;23.266;2023-02-28T00:46:25;95955.84;;;7.26;100.00
10652;BME280;5374;42.742;23.266;2023-02-28T00:49:14;95940.88;;;7.20;100.00
10652;BME280;5374;42.742;23.266;2023-02-28T00:52:02;95933.66;;;7.09;100.00
10652;BME280;5374;42.742;23.266;2023-02-28T00:54:49;95937.31;;;7.08;100.00
10652;BME280;5374;42.742;23.266;2023-02-28T00:57:36;95937.75;;;7.05;100.00
10652;BME280;5374;42.742;23.266;2023-02-28T01:00:23;95933.66;;;7.09;100.00
10652;BME280;5374;42.742;23.266;2023-02-28T01:03:10;95899.94;;;6.79;100.00
10652;BME280;5374;42.742;23.266;2023-02-28T01:05:59;95924.06;;;6.90;100.00
10652;BME280;5374;42.742;23.266;2023-02-28T01:08:46;95935.41;;;6.90;100.00
10652;BME280;5374;42.742;23.266;2023-02-28T01:11:34;95924.44;;;6.93;100.00
10652;BME280;5374;42.742;23.266;2023-02-28T01:14:22;95925.97;;;7.01;100.00
10652;BME280;5374;42.742;23.266;2023-02-28T01:17:09;95900.94;;;6.85;100.00
10652;BME280;5374;42.742;23.266;2023-02-28T01:19:56;95933.47;;;7.04;100.00
10652;BME280;5374;42.742;23.266;2023-02-28T01:22:45;95943.22;;;7.03;100.00
10652;BME280;5374;42.742;23.266;2023-02-28T01:25:34;95927.25;;;6.98;100.00
10652;BME280;5374;42.742;23.266;2023-02-28T01:28:21;95939.16;;;7.07;100.00
10652;BME280;5374;42.742;23.266;2023-02-28T01:31:09;95934.84;;;7.13;100.00
10652;BME280;5374;42.742;23.266;2023-02-28T01:33:57;95935.66;;;7.13;100.00
10652;BME280;5374;42.742;23.266;2023-02-28T01:36:46;95929.56;;;7.13;100.00
10652;BME280;5374;42.742;23.266;2023-02-28T01:39:35;95935.22;;;7.16;100.00
10652;BME280;5374;42.742;23.266;2023-02-28T01:42:22;95931.56;;;7.17;100.00
10652;BME280;5374;42.742;23.266;2023-02-28T01:45:20;95917.41;;;7.05;100.00
10652;BME280;5374;42.742;23.266;2023-02-28T01:48:09;95936.47;;;7.14;100.00
10652;BME280;5374;42.742;23.266;2023-02-28T01:51:00;95935.66;;;7.13;100.00
10652;BME280;5374;42.742;23.266;2023-02-28T01:53:54;95947.66;;;7.09;100.00
10652;BME280;5374;42.742;23.266;2023-02-28T01:56:48;95920.28;;;7.04;100.00
10652;BME280;5374;42.742;23.266;2023-02-28T01:59:38;95929.56;;;7.13;100.00
10652;BME280;5374;42.742;23.266;2023-02-28T02:02:32;95928.31;;;7.15;100.00
10652;BME280;5374;42.742;23.266;2023-02-28T02:05:20;95932.78;;;7.15;100.00
10652;BME280;5374;42.742;23.266;2023-02-28T02:08:10;95935.44;;;7.15;100.00
10652;BME280;5374;42.742;23.266;2023-02-28T02:11:00;95931.00;;;7.09;100.00
10652;BME280;5374;42.742;23.266;2023-02-28T02:14:16;95902.69;;;6.98;100.00
10652;BME280;5374;42.742;23.266;2023-02-28T02:17:17;95928.53;;;7.14;100.00
10652;BME280;5374;42.742;23.266;2023-02-28T02:20:24;95928.75;;;7.12;100.00
10652;BME280;5374;42.742;23.266;2023-02-28T02:23:42;95923.47;;;7.12;100.00
10652;BME280;5374;42.742;23.266;2023-02-28T02:27:02;95928.75;;;7.12;100.00
10652;BME280;5374;42.742;23.266;2023-02-28T02:33:31;95924.31;;;7.06;100.00
10652;BME280;5374;42.742;23.266;2023-02-28T02:36:30;95922.59;;;6.94;100.00
10652;BME280;5374;42.742;23.266;2023-02-28T02:39:27;95925.78;;;7.02;100.00
10652;BME280;5374;42.742;23.266;2023-02-28T02:42:21;95934.16;;;6.99;100.00
10652;BME280;5374;42.742;23.266;2023-02-28T02:45:16;95942.63;;;7.01;100.00
10652;BME280;5374;42.742;23.266;2023-02-28T02:48:07;95941.63;;;7.02;100.00
10652;BME280;5374;42.742;23.266;2023-02-28T02:50:57;95944.91;;;6.98;100.00
10652;BME280;5374;42.742;23.266;2023-02-28T02:53:51;95936.81;;;6.93;100.00
10652;BME280;5374;42.742;23.266;2023-02-28T02:56:41;95931.81;;;6.84;100.00
10652;BME280;5374;42.742;23.266;2023-02-28T02:59:32;95932.66;;;6.78;100.00
10652;BME280;5374;42.742;23.266;2023-02-28T03:02:21;95943.56;;;6.89;100.00
10652;BME280;5374;42.742;23.266;2023-02-28T03:05:14;95942.34;;;6.84;100.00
10652;BME280;5374;42.742;23.266;2023-02-28T03:08:05;95941.53;;;6.84;100.00
10652;BME280;5374;42.742;23.266;2023-02-28T03:10:57;95951.09;;;6.85;100.00
10652;BME280;5374;42.742;23.266;2023-02-28T03:14:00;95954.16;;;6.82;100.00
10652;BME280;5374;42.742;23.266;2023-02-28T03:17:04;95956.16;;;6.86;100.00
10652;BME280;5374;42.742;23.266;2023-02-28T03:20:04;95957.19;;;6.85;100.00
10652;BME280;5374;42.742;23.266;2023-02-28T03:23:01;95950.91;;;6.80;100.00
10652;BME280;5374;42.742;23.266;2023-02-28T03:25:56;95966.69;;;6.93;100.00
10652;BME280;5374;42.742;23.266;2023-02-28T03:28:52;95984.75;;;6.90;100.00
10652;BME280;5374;42.742;23.266;2023-02-28T03:31:44;95980.34;;;6.83;100.00
10652;BME280;5374;42.742;23.266;2023-02-28T03:34:37;95988.63;;;6.87;100.00
10652;BME280;5374;42.742;23.266;2023-02-28T03:37:26;95984.16;;;6.88;100.00
10652;BME280;5374;42.742;23.266;2023-02-28T03:40:17;95982.13;;;6.90;100.00
10652;BME280;5374;42.742;23.266;2023-02-28T03:43:12;95985.00;;;6.81;100.00
10652;BME280;5374;42.742;23.266;2023-02-28T03:46:02;95991.44;;;6.92;100.00
10652;BME280;5374;42.742;23.266;2023-02-28T03:48:56;95975.69;;;6.79;100.00
10652;BME280;5374;42.742;23.266;2023-02-28T03:51:48;95969.16;;;6.81;100.00
10652;BME280;5374;42.742;23.266;2023-02-28T03:54:42;95996.69;;;6.99;100.00
10652;BME280;5374;42.742;23.266;2023-02-28T03:57:34;95999.50;;;7.04;100.00
10652;BME280;5374;42.742;23.266;2023-02-28T04:00:29;95997.50;;;6.99;100.00
10652;BME280;5374;42.742;23.266;2023-02-28T04:03:18;95993.78;;;7.07;100.00
10652;BME280;5374;42.742;23.266;2023-02-28T04:06:07;95997.38;;;7.19;100.00
10652;BME280;5374;42.742;23.266;2023-02-28T04:08:56;96001.03;;;7.18;100.00
10652;BME280;5374;42.742;23.266;2023-02-28T04:11:46;95999.84;;;7.14;100.00
10652;BME280;5374;42.742;23.266;2023-02-28T04:14:37;95979.25;;;6.98;100.00
10652;BME280;5374;42.742;23.266;2023-02-28T04:17:25;96003.06;;;7.16;100.00
10652;BME280;5374;42.742;23.266;2023-02-28T04:20:13;96002.25;;;7.15;100.00
10652;BME280;5374;42.742;23.266;2023-02-28T04:23:00;95993.78;;;7.07;100.00
10652;BME280;5374;42.742;23.266;2023-02-28T04:25:47;95993.31;;;7.16;100.00
10652;BME280;5374;42.742;23.266;2023-02-28T04:28:37;95992.94;;;7.13;100.00
10652;BME280;5374;42.742;23.266;2023-02-28T04:31:24;95992.16;;;7.06;100.00
10652;BME280;5374;42.742;23.266;2023-02-28T04:34:13;95999.25;;;7.12;100.00
10652;BME280;5374;42.742;23.266;2023-02-28T04:37:00;95977.56;;;7.03;100.00
10652;BME280;5374;42.742;23.266;2023-02-28T04:39:48;96011.38;;;7.19;100.00
10652;BME280;5374;42.742;23.266;2023-02-28T04:42:36;96009.56;;;7.20;100.00
10652;BME280;5374;42.742;23.266;2023-02-28T04:45:23;96007.50;;;7.22;100.00
10652;BME280;5374;42.742;23.266;2023-02-28T04:48:11;96005.69;;;7.23;100.00
10652;BME280;5374;42.742;23.266;2023-02-28T04:51:01;96000.44;;;7.16;100.00
10652;BME280;5374;42.742;23.266;2023-02-28T04:53:48;96017.59;;;7.32;100.00
10652;BME280;5374;42.742;23.266;2023-02-28T04:56:36;96019.44;;;7.25;100.00
10652;BME280;5374;42.742;23.266;2023-02-28T04:59:23;96018.06;;;7.22;100.00
10652;BME280;5374;42.742;23.266;2023-02-28T05:02:10;96016.50;;;7.14;100.00
10652;BME280;5374;42.742;23.266;2023-02-28T05:04:57;96022.75;;;7.20;100.00
10652;BME280;5374;42.742;23.266;2023-02-28T05:07:46;96026.44;;;7.19;100.00
10652;BME280;5374;42.742;23.266;2023-02-28T05:10:33;96024.94;;;7.23;100.00
10652;BME280;5374;42.742;23.266;2023-02-28T05:13:21;96025.75;;;7.24;100.00
10652;BME280;5374;42.742;23.266;2023-02-28T05:16:08;96030.84;;;7.25;100.00
10652;BME280;5374;42.742;23.266;2023-02-28T05:18:56;96025.34;;;7.27;100.00
10652;BME280;5374;42.742;23.266;2023-02-28T05:21:49;96010.56;;;7.19;100.00
10652;BME280;5374;42.742;23.266;2023-02-28T05:24:39;96012.41;;;7.18;100.00
10652;BME280;5374;42.742;23.266;2023-02-28T05:27:27;96038.94;;;7.30;100.00
10652;BME280;5374;42.742;23.266;2023-02-28T05:30:15;96050.13;;;7.26;100.00
10652;BME280;5374;42.742;23.266;2023-02-28T05:33:02;96052.13;;;7.30;100.00
10652;BME280;5374;42.742;23.266;2023-02-28T05:35:50;96048.91;;;7.28;100.00
10652;BME280;5374;42.742;23.266;2023-02-28T05:38:37;96059.66;;;7.27;100.00
10652;BME280;5374;42.742;23.266;2023-02-28T05:41:26;96060.06;;;7.30;100.00
10652;BME280;5374;42.742;23.266;2023-02-28T05:44:13;96060.66;;;7.32;100.00
10652;BME280;5374;42.742;23.266;2023-02-28T05:47:03;96054.56;;;7.32;100.00
10652;BME280;5374;42.742;23.266;2023-02-28T05:49:50;96055.56;;;7.37;100.00
10652;BME280;5374;42.742;23.266;2023-02-28T05:52:39;96056.97;;;7.40;100.00
10652;BME280;5374;42.742;23.266;2023-02-28T05:55:26;96059.38;;;7.41;100.00
10652;BME280;5374;42.742;23.266;2023-02-28T05:58:18;96060.13;;;7.48;100.00
10652;BME280;5374;42.742;23.266;2023-02-28T06:01:20;96060.31;;;7.53;100.00
10652;BME280;5374;42.742;23.266;2023-02-28T06:04:09;96058.81;;;7.64;100.00
10652;BME280;5374;42.742;23.266;2023-02-28T06:06:58;96064.91;;;7.65;100.00
10652;BME280;5374;42.742;23.266;2023-02-28T06:09:45;96065.34;;;7.62;100.00
10652;BME280;5374;42.742;23.266;2023-02-28T06:12:32;96065.81;;;7.77;100.00
10652;BME280;5374;42.742;23.266;2023-02-28T06:15:21;96067.59;;;7.83;100.00
10652;BME280;5374;42.742;23.266;2023-02-28T06:18:08;96050.94;;;7.82;100.00
10652;BME280;5374;42.742;23.266;2023-02-28T06:20:56;96062.31;;;7.83;100.00
10652;BME280;5374;42.742;23.266;2023-02-28T06:23:43;96075.69;;;7.88;100.00
10652;BME280;5374;42.742;23.266;2023-02-28T06:26:30;96053.84;;;7.74;100.00
10652;BME280;5374;42.742;23.266;2023-02-28T06:29:18;96063.50;;;7.87;100.00
10652;BME280;5374;42.742;23.266;2023-02-28T06:32:07;96074.38;;;7.97;100.00
10652;BME280;5374;42.742;23.266;2023-02-28T06:34:55;96064.22;;;7.94;100.00
10652;BME280;5374;42.742;23.266;2023-02-28T06:37:43;96074.31;;;8.04;100.00
10652;BME280;5374;42.742;23.266;2023-02-28T06:40:30;96080.81;;;8.08;100.00
10652;BME280;5374;42.742;23.266;2023-02-28T06:43:20;96088.53;;;8.09;100.00
10652;BME280;5374;42.742;23.266;2023-02-28T06:46:11;96082.34;;;8.15;100.00
10652;BME280;5374;42.742;23.266;2023-02-28T06:49:02;96054.41;;;8.01;100.00
10652;BME280;5374;42.742;23.266;2023-02-28T06:51:49;96085.53;;;8.24;100.00
10652;BME280;5374;42.742;23.266;2023-02-28T06:54:37;96087.34;;;8.23;100.00
10652;BME280;5374;42.742;23.266;2023-02-28T06:57:24;96077.97;;;8.28;100.00
10652;BME280;5374;42.742;23.266;2023-02-28T07:00:12;96087.09;;;8.32;100.00
10652;BME280;5374;42.742;23.266;2023-02-28T07:02:59;96073.31;;;8.23;100.00
10652;BME280;5374;42.742;23.266;2023-02-28T07:05:48;96087.25;;;8.37;100.00
10652;BME280;5374;42.742;23.266;2023-02-28T07:08:36;96090.47;;;8.39;100.00
10652;BME280;5374;42.742;23.266;2023-02-28T07:11:25;96091.50;;;8.38;100.00
10652;BME280;5374;42.742;23.266;2023-02-28T07:14:12;96085.41;;;8.37;100.00
10652;BME280;5374;42.742;23.266;2023-02-28T07:17:00;96085.34;;;8.44;100.00
10652;BME280;5374;42.742;23.266;2023-02-28T07:19:47;96084.75;;;8.42;100.00
10652;BME280;5374;42.742;23.266;2023-02-28T07:22:36;96089.75;;;8.50;100.00
10652;BME280;5374;42.742;23.266;2023-02-28T07:25:27;96091.38;;;8.51;100.00
10652;BME280;5374;42.742;23.266;2023-02-28T07:28:15;96084.25;;;8.51;100.00
10652;BME280;5374;42.742;23.266;2023-02-28T07:31:05;96088.91;;;8.56;100.00
10652;BME280;5374;42.742;23.266;2023-02-28T07:33:53;96084.03;;;8.53;100.00
10652;BME280;5374;42.742;23.266;2023-02-28T07:36:42;96066.66;;;8.39;100.00
10652;BME280;5374;42.742;23.266;2023-02-28T07:39:30;96072.53;;;8.41;100.00
10652;BME280;5374;42.742;23.266;2023-02-28T07:42:17;96075.94;;;8.48;100.00
10652;BME280;5374;42.742;23.266;2023-02-28T07:45:06;96093.28;;;8.62;100.00
10652;BME280;5374;42.742;23.266;2023-02-28T07:47:54;96089.59;;;8.63;100.00
10652;BME280;5374;42.742;23.266;2023-02-28T07:50:41;96082.56;;;8.75;100.00
10652;BME280;5374;42.742;23.266;2023-02-28T07:53:28;96075.31;;;8.82;100.00
10652;BME280;5374;42.742;23.266;2023-02-28T07:56:17;96087.31;;;8.85;100.00
10652;BME280;5374;42.742;23.266;2023-02-28T07:59:05;96081.41;;;9.01;100.00
10652;BME280;5374;42.742;23.266;2023-02-28T08:01:52;96082.50;;;9.12;100.00
10652;BME280;5374;42.742;23.266;2023-02-28T08:04:39;96067.31;;;9.19;100.00
10652;BME280;5374;42.742;23.266;2023-02-28T08:07:26;96054.50;;;9.16;100.00
10652;BME280;5374;42.742;23.266;2023-02-28T08:10:14;96082.13;;;9.38;100.00
10652;BME280;5374;42.742;23.266;2023-02-28T08:13:03;96082.16;;;9.50;100.00
10652;BME280;5374;42.742;23.266;2023-02-28T08:15:50;96090.59;;;9.58;100.00
10652;BME280;5374;42.742;23.266;2023-02-28T08:18:39;96091.09;;;9.67;100.00
10652;BME280;5374;42.742;23.266;2023-02-28T08:21:26;96097.19;;;9.68;100.00
10652;BME280;5374;42.742;23.266;2023-02-28T08:24:13;96095.22;;;9.75;100.00
10652;BME280;5374;42.742;23.266;2023-02-28T08:27:01;96094.78;;;9.78;100.00
10652;BME280;5374;42.742;23.266;2023-02-28T08:29:49;96099.94;;;9.73;100.00
10652;BME280;5374;42.742;23.266;2023-02-28T08:32:37;96094.09;;;9.82;100.00
10652;BME280;5374;42.742;23.266;2023-02-28T08:35:24;96092.84;;;9.85;100.00
10652;BME280;5374;42.742;23.266;2023-02-28T08:38:11;96073.34;;;9.68;100.00
10652;BME280;5374;42.742;23.266;2023-02-28T08:41:00;96098.50;;;9.88;100.00
10652;BME280;5374;42.742;23.266;2023-02-28T08:43:47;96072.78;;;9.89;100.00
10652;BME280;5374;42.742;23.266;2023-02-28T08:46:36;96068.28;;;10.01;100.00
10652;BME280;5374;42.742;23.266;2023-02-28T08:49:24;96092.75;;;10.15;100.00
10652;BME280;5374;42.742;23.266;2023-02-28T08:52:11;96074.72;;;10.17;100.00
10652;BME280;5374;42.742;23.266;2023-02-28T08:54:59;96091.38;;;10.24;100.00
10652;BME280;5374;42.742;23.266;2023-02-28T08:57:46;96063.00;;;10.13;100.00
10652;BME280;5374;42.742;23.266;2023-02-28T09:00:33;96089.53;;;10.48;100.00
10652;BME280;5374;42.742;23.266;2023-02-28T09:03:24;96086.88;;;10.48;100.00
10652;BME280;5374;42.742;23.266;2023-02-28T09:06:13;96074.19;;;10.50;100.00
10652;BME280;5374;42.742;23.266;2023-02-28T09:09:00;96089.84;;;10.63;100.00
10652;BME280;5374;42.742;23.266;2023-02-28T09:11:49;96095.38;;;10.73;100.00
10652;BME280;5374;42.742;23.266;2023-02-28T09:14:37;96069.41;;;10.63;100.00
10652;BME280;5374;42.742;23.266;2023-02-28T09:17:24;96088.81;;;10.76;100.00
10652;BME280;5374;42.742;23.266;2023-02-28T09:20:13;96072.16;;;10.80;100.00
10652;BME280;5374;42.742;23.266;2023-02-28T09:23:00;96076.03;;;11.01;100.00
10652;BME280;5374;42.742;23.266;2023-02-28T09:25:49;96062.19;;;10.87;100.00
10652;BME280;5374;42.742;23.266;2023-02-28T09:28:36;96077.41;;;11.04;100.00
10652;BME280;5374;42.742;23.266;2023-02-28T09:31:25;96080.94;;;11.09;100.00
10652;BME280;5374;42.742;23.266;2023-02-28T09:34:13;96080.72;;;11.11;100.00
10652;BME280;5374;42.742;23.266;2023-02-28T09:37:03;96084.91;;;11.07;100.00
10652;BME280;5374;42.742;23.266;2023-02-28T09:39:50;96061.38;;;10.99;100.00
10652;BME280;5374;42.742;23.266;2023-02-28T09:42:38;96063.66;;;11.07;100.00
10652;BME280;5374;42.742;23.266;2023-02-28T09:45:28;96035.75;;;11.09;100.00
10652;BME280;5374;42.742;23.266;2023-02-28T09:48:21;96052.19;;;11.35;100.00
10652;BME280;5374;42.742;23.266;2023-02-28T09:51:15;96067.28;;;11.46;100.00
10652;BME280;5374;42.742;23.266;2023-02-28T09:54:15;96070.09;;;11.56;100.00
10652;BME280;5374;42.742;23.266;2023-02-28T09:57:07;96062.41;;;11.71;100.00
10652;BME280;5374;42.742;23.266;2023-02-28T10:00:03;96061.38;;;11.89;100.00
10652;BME280;5374;42.742;23.266;2023-02-28T10:03:06;96040.31;;;12.04;100.00
10652;BME280;5374;42.742;23.266;2023-02-28T10:05:57;96046.41;;;12.21;100.00
10652;BME280;5374;42.742;23.266;2023-02-28T10:08:53;96040.75;;;12.35;100.00
10652;BME280;5374;42.742;23.266;2023-02-28T10:11:45;96036.47;;;12.33;100.00
10652;BME280;5374;42.742;23.266;2023-02-28T10:14:34;96037.53;;;12.32;100.00
10652;BME280;5374;42.742;23.266;2023-02-28T10:17:25;96030.19;;;12.40;100.00
10652;BME280;5374;42.742;23.266;2023-02-28T10:20:19;96030.06;;;12.13;100.00
10652;BME280;5374;42.742;23.266;2023-02-28T10:23:12;95994.50;;;12.02;100.00
10652;BME280;5374;42.742;23.266;2023-02-28T10:26:08;96019.88;;;12.26;100.00
10652;BME280;5374;42.742;23.266;2023-02-28T10:28:58;96020.88;;;12.04;100.00
10652;BME280;5374;42.742;23.266;2023-02-28T10:31:46;95978.31;;;11.87;100.00
10652;BME280;5374;42.742;23.266;2023-02-28T10:34:33;96008.72;;;12.29;100.00
10652;BME280;5374;42.742;23.266;2023-02-28T10:37:20;96003.22;;;12.14;100.00
10652;BME280;5374;42.742;23.266;2023-02-28T10:40:26;96006.47;;;12.38;100.00
10652;BME280;5374;42.742;23.266;2023-02-28T10:43:20;95972.75;;;12.27;100.00
10652;BME280;5374;42.742;23.266;2023-02-28T10:46:14;95979.94;;;12.26;100.00
10652;BME280;5374;42.742;23.266;2023-02-28T10:49:14;95986.50;;;12.62;100.00
10652;BME280;5374;42.742;23.266;2023-02-28T10:52:04;95980.78;;;12.76;100.00
10652;BME280;5374;42.742;23.266;2023-02-28T10:55:14;95972.56;;;12.77;100.00
10652;BME280;5374;42.742;23.266;2023-02-28T10:58:01;95956.69;;;12.65;100.00
10652;BME280;5374;42.742;23.266;2023-02-28T11:00:49;95945.50;;;12.90;100.00
10652;BME280;5374;42.742;23.266;2023-02-28T11:03:39;95968.47;;;13.18;100.00
10652;BME280;5374;42.742;23.266;2023-02-28T11:06:29;95940.22;;;12.95;100.00
10652;BME280;5374;42.742;23.266;2023-02-28T11:09:23;95964.28;;;13.27;100.00
10652;BME280;5374;42.742;23.266;2023-02-28T11:12:21;95969.31;;;13.24;100.00
10652;BME280;5374;42.742;23.266;2023-02-28T11:15:22;95961.69;;;13.38;100.00
10652;BME280;5374;42.742;23.266;2023-02-28T11:18:21;95956.34;;;13.11;100.00
10652;BME280;5374;42.742;23.266;2023-02-28T11:21:16;95934.25;;;12.83;100.00
10652;BME280;5374;42.742;23.266;2023-02-28T11:24:13;95962.59;;;12.94;100.00
10652;BME280;5374;42.742;23.266;2023-02-28T11:27:03;95947.59;;;12.88;100.00
10652;BME280;5374;42.742;23.266;2023-02-28T11:29:50;95943.94;;;12.94;100.00
10652;BME280;5374;42.742;23.266;2023-02-28T11:32:48;95952.38;;;13.13;100.00
10652;BME280;5374;42.742;23.266;2023-02-28T11:35:38;95936.63;;;13.12;100.00
10652;BME280;5374;42.742;23.266;2023-02-28T11:38:28;95942.66;;;13.24;100.00
10652;BME280;5374;42.742;23.266;2023-02-28T11:41:26;95936.75;;;13.22;100.00
10652;BME280;5374;42.742;23.266;2023-02-28T11:44:26;95940.84;;;13.34;100.00
10652;BME280;5374;42.742;23.266;2023-02-28T11:47:24;95934.47;;;13.35;100.00
10652;BME280;5374;42.742;23.266;2023-02-28T11:50:22;95944.38;;;13.40;100.00
10652;BME280;5374;42.742;23.266;2023-02-28T11:53:22;95940.81;;;13.61;100.00
10652;BME280;5374;42.742;23.266;2023-02-28T11:56:25;95946.72;;;13.31;100.00
10652;BME280;5374;42.742;23.266;2023-02-28T11:59:35;95939.78;;;13.04;100.00
10652;BME280;5374;42.742;23.266;2023-02-28T12:02:32;95943.56;;;13.13;100.00
10652;BME280;5374;42.742;23.266;2023-02-28T12:05:30;95888.25;;;12.98;100.00
10652;BME280;5374;42.742;23.266;2023-02-28T12:08:27;95900.44;;;13.16;100.00
10652;BME280;5374;42.742;23.266;2023-02-28T12:11:33;95899.28;;;13.12;100.00
10652;BME280;5374;42.742;23.266;2023-02-28T12:17:46;95941.75;;;13.45;100.00
10652;BME280;5374;42.742;23.266;2023-02-28T12:20:41;95932.47;;;13.21;100.00
10652;BME280;5374;42.742;23.266;2023-02-28T12:23:46;95936.88;;;13.32;100.00
10652;BME280;5374;42.742;23.266;2023-02-28T12:26:40;95936.47;;;13.50;100.00
10652;BME280;5374;42.742;23.266;2023-02-28T12:29:29;95927.41;;;13.51;100.00
10652;BME280;5374;42.742;23.266;2023-02-28T12:32:21;95907.44;;;13.22;100.00
10652;BME280;5374;42.742;23.266;2023-02-28T12:35:13;95914.19;;;13.34;100.00
10652;BME280;5374;42.742;23.266;2023-02-28T12:38:04;95923.94;;;13.19;100.00
10652;BME280;5374;42.742;23.266;2023-02-28T12:40:55;95909.97;;;13.12;100.00
10652;BME280;5374;42.742;23.266;2023-02-28T12:43:51;95915.03;;;13.40;100.00
10652;BME280;5374;42.742;23.266;2023-02-28T12:46:42;95929.91;;;13.31;100.00
10652;BME280;5374;42.742;23.266;2023-02-28T12:49:33;95920.31;;;13.35;100.00
10652;BME280;5374;42.742;23.266;2023-02-28T12:52:25;95906.50;;;13.11;100.00
10652;BME280;5374;42.742;23.266;2023-02-28T12:55:21;95914.72;;;13.05;100.00
10652;BME280;5374;42.742;23.266;2023-02-28T12:58:16;95876.53;;;12.99;100.00
10652;BME280;5374;42.742;23.266;2023-02-28T13:01:33;95911.78;;;13.33;100.00
10652;BME280;5374;42.742;23.266;2023-02-28T13:04:45;95898.91;;;13.25;100.00
10652;BME280;5374;42.742;23.266;2023-02-28T13:08:06;95911.06;;;13.43;100.00
10652;BME280;5374;42.742;23.266;2023-02-28T13:10:57;95913.81;;;13.21;100.00
10652;BME280;5374;42.742;23.266;2023-02-28T13:13:45;95887.56;;;13.08;100.00
10652;BME280;5374;42.742;23.266;2023-02-28T13:16:59;95888.88;;;13.05;100.00
10652;BME280;5374;42.742;23.266;2023-02-28T13:19:57;95894.91;;;12.95;100.00
10652;BME280;5374;42.742;23.266;2023-02-28T13:22:47;95897.72;;;12.84;100.00
10652;BME280;5374;42.742;23.266;2023-02-28T13:25:51;95903.38;;;12.87;100.00
10652;BME280;5374;42.742;23.266;2023-02-28T13:29:21;95886.66;;;12.70;100.00
10652;BME280;5374;42.742;23.266;2023-02-28T13:32:29;95899.84;;;12.82;100.00
10652;BME280;5374;42.742;23.266;2023-02-28T13:35:37;95895.72;;;12.69;100.00
10652;BME280;5374;42.742;23.266;2023-02-28T13:38:36;95874.59;;;12.36;100.00
10652;BME280;5374;42.742;23.266;2023-02-28T13:41:48;95899.22;;;12.48;100.00
10652;BME280;5374;42.742;23.266;2023-02-28T13:45:20;95893.31;;;12.46;100.00
10652;BME280;5374;42.742;23.266;2023-02-28T13:48:19;95853.78;;;12.32;100.00
10652;BME280;5374;42.742;23.266;2023-02-28T13:51:38;95886.38;;;12.45;100.00
10652;BME280;5374;42.742;23.266;2023-02-28T13:54:34;95885.97;;;12.53;100.00
10652;BME280;5374;42.742;23.266;2023-02-28T13:57:30;95870.28;;;12.56;100.00
10652;BME280;5374;42.742;23.266;2023-02-28T14:00:35;95882.97;;;12.49;100.00
10652;BME280;5374;42.742;23.266;2023-02-28T14:03:41;95855.69;;;12.37;100.00
10652;BME280;5374;42.742;23.266;2023-02-28T14:06:32;95872.66;;;12.31;100.00
10652;BME280;5374;42.742;23.266;2023-02-28T14:09:24;95868.47;;;12.13;100.00
10652;BME280;5374;42.742;23.266;2023-02-28T14:12:51;95884.13;;;12.31;100.00
10652;BME280;5374;42.742;23.266;2023-02-28T14:15:48;95866.69;;;12.19;100.00
10652;BME280;5374;42.742;23.266;2023-02-28T14:18:40;95877.88;;;12.21;100.00
10652;BME280;5374;42.742;23.266;2023-02-28T14:21:30;95884.06;;;12.05;100.00
10652;BME280;5374;42.742;23.266;2023-02-28T14:24:45;95888.34;;;12.06;100.00
10652;BME280;5374;42.742;23.266;2023-02-28T14:27:45;95880.53;;;11.99;100.00
10652;BME280;5374;42.742;23.266;2023-02-28T14:31:06;95888.22;;;12.17;100.00
10652;BME280;5374;42.742;23.266;2023-02-28T14:34:12;95881.97;;;12.07;100.00
10652;BME280;5374;42.742;23.266;2023-02-28T14:37:02;95892.63;;;12.07;100.00
10652;BME280;5374;42.742;23.266;2023-02-28T14:39:50;95900.19;;;12.15;100.00
10652;BME280;5374;42.742;23.266;2023-02-28T14:42:38;95894.28;;;11.91;100.00
10652;BME280;5374;42.742;23.266;2023-02-28T14:45:30;95892.88;;;12.05;100.00
10652;BME280;5374;42.742;23.266;2023-02-28T14:48:19;95908.75;;;12.00;100.00
10652;BME280;5374;42.742;23.266;2023-02-28T14:51:09;95884.63;;;11.85;100.00
10652;BME280;5374;42.742;23.266;2023-02-28T14:53:59;95892.78;;;12.00;100.00
10652;BME280;5374;42.742;23.266;2023-02-28T14:56:49;95895.34;;;11.90;100.00
10652;BME280;5374;42.742;23.266;2023-02-28T14:59:37;95894.63;;;11.78;100.00
10652;BME280;5374;42.742;23.266;2023-02-28T15:02:25;95896.69;;;11.76;100.00
10652;BME280;5374;42.742;23.266;2023-02-28T15:05:24;95876.69;;;11.51;100.00
10652;BME280;5374;42.742;23.266;2023-02-28T15:08:15;95887.53;;;11.67;100.00
10652;BME280;5374;42.742;23.266;2023-02-28T15:11:05;95891.25;;;11.65;100.00
10652;BME280;5374;42.742;23.266;2023-02-28T15:13:55;95892.13;;;11.54;100.00
10652;BME280;5374;42.742;23.266;2023-02-28T15:16:43;95885.97;;;11.32;100.00
10652;BME280;5374;42.742;23.266;2023-02-28T15:19:34;95883.06;;;11.17;100.00
10652;BME280;5374;42.742;23.266;2023-02-28T15:22:26;95900.72;;;11.06;100.00
10652;BME280;5374;42.742;23.266;2023-02-28T15:25:19;95880.44;;;11.00;100.00
10652;BME280;5374;42.742;23.266;2023-02-28T15:28:14;95893.69;;;10.83;100.00
10652;BME280;5374;42.742;23.266;2023-02-28T15:31:03;95915.91;;;10.94;100.00
10652;BME280;5374;42.742;23.266;2023-02-28T15:34:05;95925.59;;;10.83;100.00